Time;durP1;ratioP1;P1;durP2;ratioP2;P2;SDS_P1;SDS_P2;PMS_P1;PMS_P2;Temp;Humidity;BMP_temperature;BMP_pressure;BME280_temperature;BME280_humidity;BME280_pressure;Samples;Min_cycle;Max_cycle;Signal;HPM_P1;HPM_P2
2024/01/18 00:01:18;;;;;;;10.40;10.20;;;-1.80;99.90;;;;;;5036721;27;20489;-69
2024/01/18 00:03:45;;;;;;;9.90;9.70;;;-1.80;99.90;;;;;;5007970;27;20496;-69
2024/01/18 00:06:12;;;;;;;10.10;9.90;;;-1.80;99.90;;;;;;5008584;28;20597;-69
2024/01/18 00:08:40;;;;;;;9.40;9.20;;;-1.80;99.90;;;;;;5015440;27;20473;-69
2024/01/18 00:11:07;;;;;;;9.70;9.50;;;-1.70;99.90;;;;;;5024487;27;21207;-69
2024/01/18 00:13:34;;;;;;;10.10;9.90;;;-1.70;99.90;;;;;;5009338;27;20463;-68
2024/01/18 00:16:01;;;;;;;9.23;9.03;;;-1.70;99.90;;;;;;5011886;27;20465;-68
2024/01/18 00:18:28;;;;;;;9.40;9.20;;;-1.70;99.90;;;;;;5010799;27;20446;-68
2024/01/18 00:20:55;;;;;;;9.63;9.43;;;-1.70;99.90;;;;;;5019218;27;20857;-68
2024/01/18 00:23:22;;;;;;;9.60;9.40;;;-1.70;99.90;;;;;;5015440;28;20861;-69
2024/01/18 00:25:51;;;;;;;9.73;9.53;;;-1.70;99.90;;;;;;5012099;27;20786;-69
2024/01/18 00:28:17;;;;;;;9.30;9.10;;;-1.70;99.90;;;;;;5006902;27;20575;-69
2024/01/18 00:30:44;;;;;;;9.70;9.50;;;-1.70;99.90;;;;;;5020361;27;20549;-69
2024/01/18 00:33:11;;;;;;;9.40;9.20;;;-1.70;99.90;;;;;;5005818;27;20479;-69
2024/01/18 00:35:38;;;;;;;8.87;8.73;;;-1.70;99.90;;;;;;5013579;27;20531;-69
2024/01/18 00:38:05;;;;;;;9.30;9.10;;;-1.70;99.90;;;;;;5012921;27;20481;-69
2024/01/18 00:40:32;;;;;;;9.40;9.20;;;-1.70;99.90;;;;;;5033753;27;20465;-69
2024/01/18 00:43:01;;;;;;;9.30;9.10;;;-1.60;99.90;;;;;;5008098;28;20840;-69
2024/01/18 00:45:28;;;;;;;9.40;9.20;;;-1.60;99.90;;;;;;5015287;27;20454;-69
2024/01/18 00:47:55;;;;;;;8.43;8.33;;;-1.60;99.90;;;;;;5008258;27;20839;-69
2024/01/18 00:50:22;;;;;;;9.27;9.07;;;-1.70;99.90;;;;;;5020036;27;20463;-69
2024/01/18 00:52:49;;;;;;;9.40;9.20;;;-1.70;99.90;;;;;;5005816;27;20479;-69
2024/01/18 00:55:16;;;;;;;9.80;9.60;;;-1.70;99.90;;;;;;5011109;27;20488;-69
2024/01/18 00:57:43;;;;;;;9.17;8.97;;;-1.60;99.90;;;;;;5013743;28;20469;-69
2024/01/18 01:00:13;;;;;;;8.73;8.63;;;-1.60;99.90;;;;;;5013086;27;21390;-69
2024/01/18 01:02:40;;;;;;;9.37;9.17;;;-1.60;99.90;;;;;;5009892;27;20554;-69
2024/01/18 01:05:08;;;;;;;9.23;9.03;;;-1.60;99.90;;;;;;5010247;27;20470;-69
2024/01/18 01:07:34;;;;;;;9.87;9.67;;;-1.70;99.90;;;;;;5012230;27;20969;-69
2024/01/18 01:10:01;;;;;;;9.53;9.33;;;-1.80;99.90;;;;;;5016156;27;20474;-69
2024/01/18 01:12:28;;;;;;;9.27;9.07;;;-1.70;99.90;;;;;;5014340;28;20479;-69
2024/01/18 01:14:55;;;;;;;9.20;9.00;;;-1.80;99.90;;;;;;5002967;28;20540;-68
2024/01/18 01:17:23;;;;;;;9.13;8.93;;;-1.80;99.90;;;;;;5012269;28;20911;-69
2024/01/18 01:19:50;;;;;;;9.20;9.00;;;-1.80;99.90;;;;;;5004913;27;20471;-69
2024/01/18 01:22:17;;;;;;;9.90;9.70;;;-1.90;99.90;;;;;;5005822;27;20499;-69
2024/01/18 01:24:44;;;;;;;8.67;8.57;;;-1.90;99.90;;;;;;5006863;27;20470;-69
2024/01/18 01:27:11;;;;;;;8.57;8.47;;;-1.90;99.90;;;;;;5007002;27;20540;-69
2024/01/18 01:29:38;;;;;;;8.63;8.53;;;-1.80;99.90;;;;;;5011092;27;20978;-69
2024/01/18 01:32:05;;;;;;;8.03;7.93;;;-1.80;99.90;;;;;;5013124;28;20919;-69
2024/01/18 01:34:33;;;;;;;8.77;8.67;;;-1.80;99.90;;;;;;5007375;27;20571;-69
2024/01/18 01:37:00;;;;;;;8.63;8.53;;;-1.90;99.90;;;;;;5010322;27;20471;-69
2024/01/18 01:39:26;;;;;;;8.80;8.70;;;-1.90;99.90;;;;;;5014921;27;20458;-69
2024/01/18 01:41:53;;;;;;;8.27;8.17;;;-1.90;99.90;;;;;;5010896;27;20458;-69
2024/01/18 01:44:20;;;;;;;8.53;8.43;;;-1.90;99.90;;;;;;5009891;27;20961;-69
2024/01/18 01:46:47;;;;;;;8.30;8.20;;;-1.90;99.90;;;;;;5015540;27;20478;-69
2024/01/18 01:49:15;;;;;;;9.27;9.07;;;-1.80;99.90;;;;;;5011628;27;20465;-69
2024/01/18 01:51:48;;;;;;;8.40;8.30;;;-1.90;99.90;;;;;;5013324;28;20481;-69
2024/01/18 01:54:15;;;;;;;8.40;8.30;;;-1.80;99.90;;;;;;5009106;27;20955;-69
2024/01/18 01:56:43;;;;;;;8.30;8.20;;;-1.80;99.90;;;;;;5009118;27;20474;-69
2024/01/18 01:59:12;;;;;;;8.13;8.03;;;-1.80;99.90;;;;;;5021226;27;20986;-69
2024/01/18 02:01:41;;;;;;;8.80;8.67;;;-1.80;99.90;;;;;;5010990;28;20472;-69
2024/01/18 02:04:08;;;;;;;8.47;8.37;;;-1.80;99.90;;;;;;5015613;28;20460;-69
2024/01/18 02:06:38;;;;;;;8.77;8.67;;;-1.90;99.90;;;;;;5011601;27;20460;-69
2024/01/18 02:09:07;;;;;;;8.57;8.47;;;-1.90;99.90;;;;;;5010013;28;20565;-69
2024/01/18 02:11:35;;;;;;;8.23;8.13;;;-1.80;99.90;;;;;;5009284;28;20463;-69
2024/01/18 02:14:03;;;;;;;8.80;8.70;;;-1.90;99.90;;;;;;5013530;28;20815;-69
2024/01/18 02:16:32;;;;;;;8.60;8.50;;;-1.90;99.90;;;;;;5006865;27;20496;-69
2024/01/18 02:18:59;;;;;;;8.17;8.07;;;-1.90;99.90;;;;;;5019721;27;20454;-69
2024/01/18 02:21:26;;;;;;;8.17;8.07;;;-1.90;99.90;;;;;;5007461;28;20474;-70
2024/01/18 02:24:00;;;;;;;8.27;8.17;;;-1.90;99.90;;;;;;5016339;28;20462;-69
2024/01/18 02:26:29;;;;;;;7.97;7.87;;;-1.90;99.90;;;;;;5009744;28;20465;-69
2024/01/18 02:28:58;;;;;;;8.10;8.00;;;-1.90;99.90;;;;;;5013255;28;20546;-69
2024/01/18 02:31:24;;;;;;;7.70;7.60;;;-1.80;99.90;;;;;;5007525;28;20474;-69
2024/01/18 02:33:52;;;;;;;8.10;8.00;;;-1.90;99.90;;;;;;5007185;28;20695;-69
2024/01/18 02:36:20;;;;;;;7.60;7.50;;;-1.90;99.90;;;;;;5009071;28;20839;-69
2024/01/18 02:38:47;;;;;;;8.17;8.07;;;-1.80;99.90;;;;;;5019102;28;20474;-69
2024/01/18 02:41:14;;;;;;;7.83;7.73;;;-1.90;99.90;;;;;;5008762;28;20824;-69
2024/01/18 02:43:43;;;;;;;8.33;8.23;;;-1.80;99.90;;;;;;5014271;28;20871;-69
2024/01/18 02:46:10;;;;;;;8.00;7.90;;;-1.90;99.90;;;;;;5007383;28;20479;-69
2024/01/18 02:48:37;;;;;;;8.20;8.10;;;-1.80;99.90;;;;;;5007167;28;20961;-69
2024/01/18 02:51:04;;;;;;;8.20;8.10;;;-1.80;99.90;;;;;;5009285;28;20888;-69
2024/01/18 02:53:31;;;;;;;7.70;7.60;;;-1.80;99.90;;;;;;5009294;28;21190;-70
2024/01/18 02:55:58;;;;;;;8.00;7.90;;;-1.80;99.90;;;;;;5010028;28;20564;-69
2024/01/18 02:58:26;;;;;;;8.00;7.90;;;-1.80;99.90;;;;;;5015955;28;20956;-69
2024/01/18 03:00:54;;;;;;;8.80;8.70;;;-1.70;99.90;;;;;;5010468;28;20472;-69
2024/01/18 03:03:20;;;;;;;8.50;8.40;;;-1.60;99.90;;;;;;5006759;28;20496;-69
2024/01/18 03:05:47;;;;;;;9.03;8.83;;;-1.60;99.90;;;;;;5002157;28;20567;-70
2024/01/18 03:08:15;;;;;;;8.50;8.40;;;-1.70;99.90;;;;;;5011123;28;20572;-70
2024/01/18 03:10:42;;;;;;;8.63;8.53;;;-1.70;99.90;;;;;;5020649;28;20473;-70
2024/01/18 03:13:09;;;;;;;8.23;8.13;;;-1.70;99.90;;;;;;5004495;28;20920;-69
2024/01/18 03:15:36;;;;;;;9.50;9.30;;;-1.60;99.90;;;;;;5014089;28;20859;-69
2024/01/18 03:18:04;;;;;;;8.93;8.80;;;-1.60;99.90;;;;;;5016415;28;20461;-70
2024/01/18 03:20:31;;;;;;;8.80;8.70;;;-1.70;99.90;;;;;;5014376;27;20462;-69
2024/01/18 03:22:58;;;;;;;8.37;8.27;;;-1.70;99.90;;;;;;5013036;27;20466;-70
2024/01/18 03:25:24;;;;;;;9.10;8.90;;;-1.70;99.90;;;;;;5015284;27;20462;-69
2024/01/18 03:27:51;;;;;;;9.27;9.07;;;-1.60;99.90;;;;;;5012614;27;20923;-68
2024/01/18 03:30:19;;;;;;;9.00;8.90;;;-1.70;99.90;;;;;;5019381;27;21356;-69
2024/01/18 03:32:46;;;;;;;8.50;8.40;;;-1.70;99.90;;;;;;5014647;27;20552;-69
2024/01/18 03:35:15;;;;;;;8.70;8.60;;;-1.70;99.90;;;;;;5011818;27;21611;-69
2024/01/18 03:37:42;;;;;;;9.17;8.97;;;-1.70;99.90;;;;;;5013785;27;20468;-69
2024/01/18 03:40:10;;;;;;;8.87;8.77;;;-1.70;99.90;;;;;;5012129;27;20470;-69
2024/01/18 03:42:40;;;;;;;8.30;8.20;;;-1.70;99.90;;;;;;5015398;27;20462;-69
2024/01/18 03:45:07;;;;;;;8.10;8.00;;;-1.60;99.90;;;;;;5011404;27;21173;-69
2024/01/18 03:47:34;;;;;;;8.07;7.97;;;-1.60;99.90;;;;;;5009062;27;20474;-69
2024/01/18 03:50:01;;;;;;;8.27;8.17;;;-1.60;99.90;;;;;;5010863;27;20467;-69
2024/01/18 03:52:29;;;;;;;8.40;8.30;;;-1.50;99.90;;;;;;5010103;27;20748;-69
2024/01/18 03:54:57;;;;;;;9.07;8.87;;;-1.50;99.90;;;;;;5011760;27;20462;-69
2024/01/18 03:57:25;;;;;;;8.90;8.80;;;-1.50;99.90;;;;;;5014370;27;20733;-69
2024/01/18 03:59:51;;;;;;;8.40;8.30;;;-1.50;99.90;;;;;;5006330;27;20684;-69
2024/01/18 04:02:19;;;;;;;8.33;8.23;;;-1.50;99.90;;;;;;5015129;27;20472;-69
2024/01/18 04:04:46;;;;;;;9.00;8.80;;;-1.50;99.90;;;;;;5016179;27;20506;-69
2024/01/18 04:07:15;;;;;;;8.57;8.47;;;-1.50;99.90;;;;;;5019071;27;20948;-68
2024/01/18 04:09:43;;;;;;;9.20;9.00;;;-1.40;99.90;;;;;;5015524;27;20471;-69
2024/01/18 04:12:10;;;;;;;9.30;9.10;;;-1.50;99.90;;;;;;5011552;27;20826;-69
2024/01/18 04:14:40;;;;;;;8.90;8.80;;;-1.50;99.90;;;;;;5009285;27;20459;-69
2024/01/18 04:17:07;;;;;;;8.50;8.40;;;-1.40;99.90;;;;;;5011968;27;20495;-69
2024/01/18 04:19:34;;;;;;;8.77;8.67;;;-1.50;99.90;;;;;;5009635;28;20514;-69
2024/01/18 04:22:01;;;;;;;8.80;8.70;;;-1.50;99.90;;;;;;5012330;27;20474;-69
2024/01/18 04:24:28;;;;;;;8.97;8.83;;;-1.50;99.90;;;;;;5006547;27;20852;-69
2024/01/18 04:26:56;;;;;;;9.23;9.03;;;-1.50;99.90;;;;;;5015761;27;20472;-69
2024/01/18 04:29:24;;;;;;;8.63;8.53;;;-1.50;99.90;;;;;;5011829;27;20443;-69
2024/01/18 04:31:51;;;;;;;8.57;8.47;;;-1.50;99.90;;;;;;5012577;27;20573;-69
2024/01/18 04:34:18;;;;;;;8.50;8.40;;;-1.50;99.90;;;;;;5010861;28;20463;-69
2024/01/18 04:36:44;;;;;;;8.77;8.67;;;-1.50;99.90;;;;;;5006200;27;20881;-69
2024/01/18 04:39:11;;;;;;;9.33;9.13;;;-1.60;99.90;;;;;;5020532;27;20458;-69
2024/01/18 04:41:38;;;;;;;8.77;8.67;;;-1.50;99.90;;;;;;5024719;27;20458;-69
2024/01/18 04:44:07;;;;;;;9.80;9.60;;;-1.50;99.90;;;;;;5014670;27;20463;-69
2024/01/18 04:46:35;;;;;;;9.40;9.20;;;-1.60;99.90;;;;;;5006736;27;20478;-69
2024/01/18 04:49:02;;;;;;;9.03;8.87;;;-1.50;99.90;;;;;;5009994;28;20903;-69
2024/01/18 04:51:30;;;;;;;9.50;9.30;;;-1.50;99.90;;;;;;5014019;27;20577;-68
2024/01/18 04:53:57;;;;;;;8.87;8.73;;;-1.50;99.90;;;;;;5010807;27;20463;-69
2024/01/18 04:56:24;;;;;;;8.90;8.80;;;-1.60;99.90;;;;;;5009260;27;20884;-69
2024/01/18 04:58:51;;;;;;;9.10;8.90;;;-1.70;99.90;;;;;;5011324;28;20982;-69
2024/01/18 05:01:19;;;;;;;8.10;8.00;;;-1.60;99.90;;;;;;5015321;27;20447;-69
2024/01/18 05:03:47;;;;;;;8.23;8.13;;;-1.60;99.90;;;;;;5012350;27;21392;-69
2024/01/18 05:06:14;;;;;;;8.97;8.87;;;-1.70;99.90;;;;;;5009897;27;20660;-69
2024/01/18 05:08:41;;;;;;;8.73;8.63;;;-1.60;99.90;;;;;;5017480;27;20470;-69
2024/01/18 05:11:10;;;;;;;8.57;8.47;;;-1.60;99.90;;;;;;5009175;27;21077;-68
2024/01/18 05:13:37;;;;;;;8.70;8.60;;;-1.60;99.90;;;;;;5009821;28;20477;-68
2024/01/18 05:16:05;;;;;;;9.00;8.80;;;-1.60;99.90;;;;;;5005495;27;20882;-69
2024/01/18 05:18:35;;;;;;;8.67;8.57;;;-1.60;99.90;;;;;;5010284;27;20874;-69
2024/01/18 05:21:02;;;;;;;9.20;9.00;;;-1.60;99.90;;;;;;5014651;27;20474;-69
2024/01/18 05:23:29;;;;;;;9.10;8.90;;;-1.70;99.90;;;;;;5008349;28;20463;-69
2024/01/18 05:25:56;;;;;;;7.97;7.87;;;-1.70;99.90;;;;;;5016748;27;20472;-68
2024/01/18 05:28:23;;;;;;;7.90;7.80;;;-1.70;99.90;;;;;;5012875;27;20817;-68
2024/01/18 05:30:51;;;;;;;8.63;8.53;;;-1.70;99.90;;;;;;5009176;28;20540;-68
2024/01/18 05:33:18;;;;;;;8.37;8.27;;;-1.80;99.90;;;;;;5011741;27;20558;-68
2024/01/18 05:35:46;;;;;;;8.50;8.40;;;-1.80;99.90;;;;;;5014342;28;20547;-68
2024/01/18 05:38:13;;;;;;;8.87;8.77;;;-1.80;99.90;;;;;;5014311;27;20489;-68
2024/01/18 05:40:40;;;;;;;8.63;8.53;;;-1.80;99.90;;;;;;5007745;27;20816;-68
2024/01/18 05:43:07;;;;;;;9.17;8.97;;;-1.80;99.90;;;;;;5010709;27;20544;-68
2024/01/18 05:45:34;;;;;;;8.73;8.63;;;-1.90;99.90;;;;;;5011274;27;20463;-68
2024/01/18 05:48:01;;;;;;;9.30;9.10;;;-1.90;99.90;;;;;;5008480;28;20474;-67
2024/01/18 05:50:27;;;;;;;9.23;9.03;;;-1.90;99.90;;;;;;5021525;27;20553;-68
2024/01/18 05:52:56;;;;;;;9.30;9.10;;;-1.90;99.90;;;;;;5019011;27;20484;-68
2024/01/18 05:55:24;;;;;;;9.87;9.67;;;-1.90;99.90;;;;;;5009933;27;20479;-68
2024/01/18 05:57:50;;;;;;;9.70;9.50;;;-2.10;99.90;;;;;;5012898;27;20940;-68
2024/01/18 06:00:17;;;;;;;9.43;9.23;;;-2.30;99.90;;;;;;5015104;27;20519;-68
2024/01/18 06:02:44;;;;;;;9.90;9.70;;;-2.30;99.90;;;;;;5016170;28;21085;-68
2024/01/18 06:05:11;;;;;;;9.67;9.47;;;-2.20;99.90;;;;;;5009646;27;20471;-68
2024/01/18 06:07:38;;;;;;;9.90;9.70;;;-2.20;99.90;;;;;;5014888;27;20769;-68
2024/01/18 06:10:07;;;;;;;9.57;9.37;;;-2.20;99.90;;;;;;5015221;27;20569;-68
2024/01/18 06:12:34;;;;;;;9.97;9.77;;;-2.20;99.90;;;;;;5010367;27;20849;-68
2024/01/18 06:15:02;;;;;;;9.53;9.33;;;-2.30;99.90;;;;;;5006921;28;20456;-68
2024/01/18 06:17:30;;;;;;;10.20;10.00;;;-2.30;99.90;;;;;;5009109;28;21000;-68
2024/01/18 06:19:57;;;;;;;9.90;9.70;;;-2.30;99.90;;;;;;5018182;28;20843;-68
2024/01/18 06:22:24;;;;;;;10.13;9.93;;;-2.30;99.90;;;;;;5013782;28;20471;-68
2024/01/18 06:24:50;;;;;;;9.87;9.67;;;-2.40;99.90;;;;;;5011574;28;20868;-68
2024/01/18 06:27:18;;;;;;;9.50;9.30;;;-2.40;99.90;;;;;;5010508;28;20464;-68
2024/01/18 06:29:45;;;;;;;9.63;9.43;;;-2.40;99.90;;;;;;5008596;28;20463;-68
2024/01/18 06:32:13;;;;;;;10.50;10.30;;;-2.40;99.90;;;;;;5013751;28;20521;-68
2024/01/18 06:34:41;;;;;;;10.40;10.20;;;-2.40;99.90;;;;;;5015979;28;20830;-69
2024/01/18 06:37:08;;;;;;;9.83;9.63;;;-2.50;99.90;;;;;;5012048;28;20495;-69
2024/01/18 06:39:36;;;;;;;9.90;9.70;;;-2.60;99.90;;;;;;5049032;28;20469;-69
2024/01/18 06:42:07;;;;;;;10.33;10.13;;;-2.80;99.90;;;;;;5006912;28;20496;-68
2024/01/18 06:44:36;;;;;;;9.83;9.63;;;-2.80;99.90;;;;;;5005479;28;20535;-69
2024/01/18 06:47:03;;;;;;;10.17;9.97;;;-2.70;99.90;;;;;;5015542;27;20458;-68
2024/01/18 06:49:30;;;;;;;9.63;9.43;;;-2.70;99.90;;;;;;5014055;27;20514;-68
2024/01/18 06:51:57;;;;;;;10.60;10.40;;;-2.70;99.90;;;;;;5010864;27;20457;-68
2024/01/18 06:54:24;;;;;;;10.43;10.23;;;-2.80;99.90;;;;;;5013155;27;20477;-69
2024/01/18 06:56:51;;;;;;;10.20;10.00;;;-2.80;99.90;;;;;;5012144;27;20490;-69
2024/01/18 06:59:18;;;;;;;9.73;9.53;;;-2.80;99.90;;;;;;5015661;27;20462;-69
2024/01/18 07:01:47;;;;;;;10.13;9.93;;;-2.90;99.90;;;;;;5017722;27;20469;-68
2024/01/18 07:04:15;;;;;;;10.20;10.00;;;-3.00;99.90;;;;;;5013051;27;20453;-68
2024/01/18 07:06:42;;;;;;;10.23;10.03;;;-3.10;99.90;;;;;;5017812;27;20465;-68
2024/01/18 07:09:09;;;;;;;11.00;10.70;;;-3.30;99.90;;;;;;5012360;27;21051;-68
2024/01/18 07:11:38;;;;;;;10.30;10.10;;;-3.30;99.90;;;;;;5009039;27;21036;-68
2024/01/18 07:14:05;;;;;;;11.20;10.90;;;-3.40;99.90;;;;;;5015882;27;20471;-68
2024/01/18 07:16:32;;;;;;;11.00;10.70;;;-3.70;99.90;;;;;;5007565;27;20501;-68
2024/01/18 07:19:00;;;;;;;10.63;10.43;;;-3.80;99.90;;;;;;5011455;27;20508;-68
2024/01/18 07:21:27;;;;;;;10.73;10.50;;;-3.80;99.90;;;;;;5014357;27;20881;-68
2024/01/18 07:23:54;;;;;;;10.80;10.50;;;-3.90;99.90;;;;;;5010937;27;20878;-68
2024/01/18 07:26:22;;;;;;;10.60;10.40;;;-4.00;99.90;;;;;;5009849;28;20543;-68
2024/01/18 07:28:49;;;;;;;10.03;9.83;;;-4.30;99.90;;;;;;5017252;27;20472;-68
2024/01/18 07:31:16;;;;;;;9.83;9.63;;;-4.40;99.90;;;;;;5015346;27;20492;-67
2024/01/18 07:33:44;;;;;;;10.57;10.37;;;-4.40;99.90;;;;;;5016665;27;20457;-67
2024/01/18 07:36:12;;;;;;;10.93;10.63;;;-4.60;99.90;;;;;;5017083;27;20927;-67
2024/01/18 07:38:40;;;;;;;11.10;10.80;;;-4.70;99.90;;;;;;5022882;27;20471;-67
2024/01/18 07:41:07;;;;;;;10.43;10.23;;;-5.00;99.90;;;;;;5013819;27;21073;-67
2024/01/18 07:43:34;;;;;;;10.57;10.37;;;-5.60;99.90;;;;;;5012330;27;20464;-67
2024/01/18 07:46:01;;;;;;;10.20;10.00;;;-5.60;99.90;;;;;;5006834;28;20483;-67
2024/01/18 07:54:05;;;;;;;8.27;8.17;;;-5.00;99.90;;;;;;5012942;27;20820;-68
2024/01/18 07:56:32;;;;;;;8.00;7.90;;;-5.00;99.90;;;;;;5015306;27;20486;-68
2024/01/18 07:58:59;;;;;;;7.37;7.27;;;-5.10;99.90;;;;;;5013454;28;20976;-68
2024/01/18 08:01:25;;;;;;;7.40;7.30;;;-5.30;99.90;;;;;;5016110;27;20476;-68
2024/01/18 08:03:53;;;;;;;7.13;7.03;;;-5.30;99.90;;;;;;5009014;27;20980;-68
2024/01/18 08:06:19;;;;;;;7.30;7.20;;;-5.40;99.90;;;;;;5007834;27;20456;-68
2024/01/18 08:08:48;;;;;;;6.97;6.87;;;-5.40;99.90;;;;;;5011627;27;20516;-68
2024/01/18 08:11:16;;;;;;;6.27;6.17;;;-5.40;99.90;;;;;;5011828;27;20469;-68
2024/01/18 08:13:43;;;;;;;6.23;6.13;;;-5.50;99.90;;;;;;5006685;27;20467;-68
2024/01/18 08:16:10;;;;;;;6.30;6.20;;;-5.50;99.90;;;;;;5007849;27;20462;-68
2024/01/18 08:18:38;;;;;;;7.10;7.00;;;-5.50;99.90;;;;;;5005464;27;20790;-68
2024/01/18 08:21:05;;;;;;;6.50;6.40;;;-5.60;99.90;;;;;;5010616;27;20681;-68
2024/01/18 08:23:32;;;;;;;6.50;6.40;;;-5.60;99.90;;;;;;5003464;27;20467;-68
2024/01/18 08:26:00;;;;;;;6.80;6.70;;;-5.70;99.90;;;;;;5009488;27;21061;-68
2024/01/18 08:28:28;;;;;;;7.23;7.13;;;-5.80;99.90;;;;;;5010177;27;20469;-68
2024/01/18 08:30:55;;;;;;;7.00;6.90;;;-5.80;99.90;;;;;;5007763;27;20478;-68
2024/01/18 08:33:22;;;;;;;6.83;6.73;;;-5.80;99.90;;;;;;5007371;28;20561;-68
2024/01/18 08:35:49;;;;;;;7.13;7.03;;;-5.90;99.90;;;;;;5007197;27;20470;-69
2024/01/18 08:38:16;;;;;;;7.10;7.00;;;-6.00;99.90;;;;;;5007164;27;20494;-69
2024/01/18 08:40:43;;;;;;;7.27;7.17;;;-6.00;99.90;;;;;;5009737;27;20467;-69
2024/01/18 08:43:11;;;;;;;7.23;7.13;;;-6.00;99.90;;;;;;5009766;27;20461;-69
2024/01/18 08:45:41;;;;;;;7.10;7.00;;;-6.30;99.90;;;;;;5009314;27;20474;-68
2024/01/18 08:48:08;;;;;;;7.10;7.00;;;-6.50;99.90;;;;;;5009803;27;20493;-69
2024/01/18 08:50:35;;;;;;;7.80;7.70;;;-6.70;99.90;;;;;;5004320;27;20469;-69
2024/01/18 08:53:02;;;;;;;7.70;7.60;;;-6.80;99.90;;;;;;5006913;27;20468;-70
2024/01/18 08:55:29;;;;;;;8.20;8.10;;;-6.90;99.90;;;;;;5009083;27;20460;-69
2024/01/18 08:57:56;;;;;;;7.20;7.10;;;-7.00;99.90;;;;;;5007859;28;20659;-70
2024/01/18 09:00:24;;;;;;;7.17;7.07;;;-7.00;99.90;;;;;;5000221;27;20466;-70
2024/01/18 09:02:51;;;;;;;6.80;6.70;;;-6.90;99.90;;;;;;5005792;28;20466;-70
2024/01/18 09:05:20;;;;;;;7.03;6.93;;;-6.70;99.90;;;;;;5012270;28;20473;-69
2024/01/18 09:07:47;;;;;;;6.93;6.83;;;-6.60;99.90;;;;;;5010286;27;20485;-67
2024/01/18 09:10:15;;;;;;;7.13;7.03;;;-6.50;99.90;;;;;;5011323;27;20550;-68
2024/01/18 09:12:45;;;;;;;6.50;6.40;;;-6.40;99.90;;;;;;5002175;28;20518;-68
2024/01/18 09:15:12;;;;;;;6.80;6.70;;;-6.30;99.90;;;;;;5011897;27;20466;-68
2024/01/18 09:17:42;;;;;;;6.87;6.77;;;-6.20;99.90;;;;;;5007130;28;20965;-68
2024/01/18 09:20:10;;;;;;;6.60;6.50;;;-6.10;99.90;;;;;;5009670;28;20998;-68
2024/01/18 09:22:37;;;;;;;6.87;6.77;;;-6.10;99.90;;;;;;5009379;27;20553;-68
2024/01/18 09:25:04;;;;;;;7.37;7.27;;;-6.00;99.90;;;;;;5010457;27;20500;-68
2024/01/18 09:27:31;;;;;;;7.10;7.00;;;-6.00;99.90;;;;;;5003924;27;20802;-68
2024/01/18 09:29:58;;;;;;;6.97;6.87;;;-5.90;99.90;;;;;;5012158;27;20925;-68
2024/01/18 09:32:25;;;;;;;6.93;6.83;;;-5.90;99.90;;;;;;5009257;28;20561;-68
2024/01/18 09:34:53;;;;;;;7.07;6.97;;;-5.90;99.90;;;;;;5008847;27;20565;-68
2024/01/18 09:37:20;;;;;;;7.30;7.20;;;-5.90;99.90;;;;;;5011045;27;21004;-68
2024/01/18 09:39:47;;;;;;;6.47;6.37;;;-5.70;99.90;;;;;;5010350;27;20473;-68
2024/01/18 09:42:17;;;;;;;7.17;7.07;;;-5.60;99.90;;;;;;5000869;27;20470;-68
2024/01/18 09:44:46;;;;;;;7.07;6.97;;;-5.70;99.90;;;;;;5010059;27;20842;-68
2024/01/18 09:47:15;;;;;;;6.80;6.70;;;-5.50;99.90;;;;;;5009819;27;20458;-68
2024/01/18 09:49:43;;;;;;;7.60;7.50;;;-5.40;99.90;;;;;;5008462;28;20468;-68
2024/01/18 09:52:12;;;;;;;7.30;7.20;;;-5.20;99.90;;;;;;5007016;28;20512;-68
2024/01/18 09:54:39;;;;;;;6.80;6.70;;;-5.10;99.90;;;;;;5005687;27;21095;-68
2024/01/18 09:57:12;;;;;;;6.53;6.43;;;-5.00;99.90;;;;;;5007675;28;20584;-69
2024/01/18 09:59:42;;;;;;;7.30;7.20;;;-4.90;99.90;;;;;;5004515;27;20469;-68
2024/01/18 10:02:09;;;;;;;6.63;6.53;;;-4.90;99.90;;;;;;5009347;27;20480;-68
2024/01/18 10:04:37;;;;;;;6.40;6.30;;;-4.90;99.90;;;;;;5007913;28;20469;-68
2024/01/18 10:07:04;;;;;;;6.73;6.63;;;-4.80;99.90;;;;;;5003101;28;20622;-68
2024/01/18 10:09:32;;;;;;;7.23;7.13;;;-4.70;99.90;;;;;;5001489;27;20530;-68
2024/01/18 10:11:59;;;;;;;7.23;7.13;;;-4.70;99.90;;;;;;5005346;27;20484;-68
2024/01/18 10:14:41;;;;;;;7.33;7.23;;;-4.70;99.90;;;;;;5007178;28;20470;-68
2024/01/18 10:17:08;;;;;;;7.37;7.27;;;-4.50;99.90;;;;;;5007319;28;21062;-68
2024/01/18 10:19:35;;;;;;;7.03;6.93;;;-4.40;99.90;;;;;;5010313;28;20473;-68
2024/01/18 10:22:04;;;;;;;7.07;6.97;;;-4.30;99.90;;;;;;5007154;28;20485;-69
2024/01/18 10:24:40;;;;;;;7.07;6.97;;;-4.20;99.90;;;;;;5009998;28;20473;-69
2024/01/18 10:27:07;;;;;;;7.23;7.13;;;-4.10;99.90;;;;;;5008048;28;20551;-68
2024/01/18 10:29:35;;;;;;;7.40;7.30;;;-4.10;99.90;;;;;;5004545;28;20470;-69
2024/01/18 10:32:03;;;;;;;6.80;6.70;;;-4.00;99.90;;;;;;5007169;28;20458;-69
2024/01/18 10:34:34;;;;;;;6.80;6.70;;;-4.00;99.90;;;;;;5005564;27;20822;-68
2024/01/18 10:37:02;;;;;;;7.10;7.00;;;-3.90;99.90;;;;;;5009090;28;20788;-69
2024/01/18 10:39:40;;;;;;;7.20;7.10;;;-3.80;99.90;;;;;;5014354;28;20971;-69
2024/01/18 10:42:08;;;;;;;7.37;7.27;;;-3.70;99.90;;;;;;5005609;28;20519;-69
2024/01/18 10:44:53;;;;;;;7.30;7.20;;;-3.60;99.90;;;;;;5010976;28;20488;-69
2024/01/18 10:47:20;;;;;;;8.03;7.93;;;-3.60;99.90;;;;;;5008380;28;20473;-69
2024/01/18 10:50:03;;;;;;;8.07;7.97;;;-3.50;99.90;;;;;;5006589;28;20501;-69
2024/01/18 10:52:31;;;;;;;8.10;8.00;;;-3.40;99.90;;;;;;5004454;28;20465;-69
2024/01/18 10:55:00;;;;;;;8.13;8.03;;;-3.40;99.90;;;;;;5005272;28;20960;-69
2024/01/18 10:57:27;;;;;;;7.80;7.70;;;-3.40;99.90;;;;;;5006679;28;20554;-69
2024/01/18 10:59:55;;;;;;;8.30;8.20;;;-3.40;99.90;;;;;;5008442;28;20463;-69
2024/01/18 11:02:22;;;;;;;8.23;8.13;;;-3.40;99.90;;;;;;5010237;28;20466;-69
2024/01/18 11:04:53;;;;;;;8.97;8.80;;;-3.30;99.90;;;;;;5007743;28;20461;-69
2024/01/18 11:07:21;;;;;;;9.10;8.90;;;-3.30;99.90;;;;;;5003754;28;20876;-70
2024/01/18 11:09:48;;;;;;;9.10;8.90;;;-3.30;99.90;;;;;;5007957;28;20470;-69
2024/01/18 11:12:17;;;;;;;9.30;9.10;;;-3.20;99.90;;;;;;5006781;28;20466;-70
2024/01/18 11:14:44;;;;;;;9.23;9.03;;;-3.10;99.90;;;;;;5003626;28;20870;-69
2024/01/18 11:17:12;;;;;;;9.80;9.60;;;-3.00;99.90;;;;;;5009231;28;21054;-70
2024/01/18 11:19:41;;;;;;;9.93;9.73;;;-2.80;99.90;;;;;;5008636;28;20713;-70
2024/01/18 11:22:10;;;;;;;9.97;9.77;;;-2.70;99.90;;;;;;5008477;28;20454;-70
2024/01/18 11:24:38;;;;;;;11.00;10.70;;;-2.50;99.90;;;;;;5002094;28;20550;-70
2024/01/18 11:27:19;;;;;;;11.30;11.00;;;-2.40;99.90;;;;;;5007442;28;20978;-70
2024/01/18 11:29:46;;;;;;;11.10;10.80;;;-2.20;99.90;;;;;;5001464;28;20474;-70
2024/01/18 11:32:14;;;;;;;11.53;11.23;;;-2.00;99.90;;;;;;5007908;28;20457;-69
2024/01/18 11:34:42;;;;;;;12.60;12.20;;;-2.00;99.90;;;;;;5008246;27;20574;-70
2024/01/18 11:37:11;;;;;;;13.00;12.57;;;-1.90;99.90;;;;;;5007483;28;20471;-70
2024/01/18 11:40:05;;;;;;;13.53;13.03;;;-1.80;99.90;;;;;;5009583;27;20472;-70
2024/01/18 11:42:34;;;;;;;14.57;13.97;;;-1.70;99.90;;;;;;5014935;27;20510;-70
2024/01/18 11:45:03;;;;;;;14.60;14.00;;;-1.70;99.90;;;;;;5007950;27;20974;-69
2024/01/18 11:47:31;;;;;;;14.90;14.30;;;-1.60;99.90;;;;;;5010125;27;20880;-70
2024/01/18 11:49:58;;;;;;;15.50;14.80;;;-1.50;99.90;;;;;;5009878;27;20459;-70
2024/01/18 11:52:27;;;;;;;16.47;15.67;;;-1.30;99.90;;;;;;5006303;27;20465;-70
2024/01/18 11:54:56;;;;;;;17.07;16.17;;;-1.00;99.90;;;;;;5006798;27;20456;-70
2024/01/18 11:57:24;;;;;;;17.40;16.50;;;-0.80;99.90;;;;;;5009254;28;20471;-70
2024/01/18 11:59:53;;;;;;;17.93;16.93;;;-0.70;99.90;;;;;;5010256;27;20869;-70
2024/01/18 12:02:21;;;;;;;17.77;16.77;;;-0.60;99.90;;;;;;5010360;27;20966;-70
2024/01/18 12:04:49;;;;;;;18.17;17.17;;;-0.70;99.90;;;;;;5008657;28;20520;-70
2024/01/18 12:07:17;;;;;;;18.53;17.47;;;-0.70;99.90;;;;;;5009531;27;20482;-70
2024/01/18 12:09:44;;;;;;;18.27;17.17;;;-0.60;99.90;;;;;;5012755;27;20474;-70
2024/01/18 12:12:12;;;;;;;19.30;18.10;;;-0.40;99.90;;;;;;5008067;28;20465;-69
2024/01/18 12:14:43;;;;;;;19.30;18.10;;;-0.30;99.90;;;;;;5005601;27;20950;-69
2024/01/18 12:17:13;;;;;;;19.03;17.73;;;-0.20;99.90;;;;;;5011270;27;20482;-70
2024/01/18 12:19:42;;;;;;;19.97;18.57;;;0.00;99.90;;;;;;5006842;27;20494;-70
2024/01/18 12:22:10;;;;;;;20.00;18.60;;;0.30;99.90;;;;;;5007665;27;20658;-69
2024/01/18 12:24:39;;;;;;;21.70;20.20;;;0.40;99.90;;;;;;5011622;27;20491;-70
2024/01/18 12:27:07;;;;;;;20.70;19.30;;;0.50;99.90;;;;;;5007783;27;20463;-70
2024/01/18 12:29:35;;;;;;;20.00;18.60;;;0.80;99.90;;;;;;5004130;28;20473;-70
2024/01/18 12:32:03;;;;;;;20.00;18.60;;;1.00;99.90;;;;;;5007273;27;20469;-69
2024/01/18 12:34:32;;;;;;;20.40;19.00;;;1.10;99.90;;;;;;5012373;27;20497;-69
2024/01/18 12:37:00;;;;;;;20.03;18.63;;;1.20;99.90;;;;;;5008517;27;20474;-69
2024/01/18 12:39:27;;;;;;;20.20;18.80;;;1.30;99.90;;;;;;5008907;27;20511;-70
2024/01/18 12:41:54;;;;;;;20.37;19.07;;;1.30;99.90;;;;;;5006407;27;20466;-70
2024/01/18 12:44:22;;;;;;;20.40;19.10;;;1.40;99.90;;;;;;5004681;28;20471;-69
2024/01/18 12:46:50;;;;;;;19.90;18.60;;;1.50;99.90;;;;;;5008150;27;20954;-69
2024/01/18 12:49:18;;;;;;;21.20;19.80;;;1.60;99.90;;;;;;5005407;28;20493;-69
2024/01/18 12:51:53;;;;;;;21.00;19.70;;;1.30;99.90;;;;;;5007663;28;20868;-69